sensor_id;sensor_type;location;lat;lon;timestamp;P1;durP1;ratioP1;P2;durP2;ratioP2
9783;SDS011;4931;44.874;-1.092;2024-02-15T00:01:51;5.88;;;3.10;;
9783;SDS011;4931;44.874;-1.092;2024-02-15T00:04:17;7.35;;;2.92;;
9783;SDS011;4931;44.874;-1.092;2024-02-15T00:06:44;9.32;;;3.08;;
9783;SDS011;4931;44.874;-1.092;2024-02-15T00:09:10;5.72;;;3.03;;
9783;SDS011;4931;44.874;-1.092;2024-02-15T00:11:36;6.13;;;2.83;;
9783;SDS011;4931;44.874;-1.092;2024-02-15T00:14:01;7.18;;;2.80;;
9783;SDS011;4931;44.874;-1.092;2024-02-15T00:16:26;6.70;;;2.90;;
9783;SDS011;4931;44.874;-1.092;2024-02-15T00:18:52;7.05;;;2.92;;
9783;SDS011;4931;44.874;-1.092;2024-02-15T00:21:20;5.43;;;2.88;;
9783;SDS011;4931;44.874;-1.092;2024-02-15T00:23:48;8.55;;;3.00;;
9783;SDS011;4931;44.874;-1.092;2024-02-15T00:26:13;7.68;;;2.97;;
9783;SDS011;4931;44.874;-1.092;2024-02-15T00:28:41;4.43;;;2.80;;
9783;SDS011;4931;44.874;-1.092;2024-02-15T00:31:07;5.93;;;2.80;;
9783;SDS011;4931;44.874;-1.092;2024-02-15T00:33:33;5.80;;;3.17;;
9783;SDS011;4931;44.874;-1.092;2024-02-15T00:36:02;6.30;;;2.90;;
9783;SDS011;4931;44.874;-1.092;2024-02-15T00:38:29;6.18;;;3.10;;
9783;SDS011;4931;44.874;-1.092;2024-02-15T00:40:54;5.28;;;2.88;;
9783;SDS011;4931;44.874;-1.092;2024-02-15T00:43:20;5.75;;;2.70;;
9783;SDS011;4931;44.874;-1.092;2024-02-15T00:45:45;6.38;;;2.80;;
9783;SDS011;4931;44.874;-1.092;2024-02-15T00:48:11;6.07;;;2.95;;
9783;SDS011;4931;44.874;-1.092;2024-02-15T00:50:37;6.50;;;3.00;;
9783;SDS011;4931;44.874;-1.092;2024-02-15T00:53:03;6.93;;;2.70;;
9783;SDS011;4931;44.874;-1.092;2024-02-15T00:55:28;6.03;;;2.85;;
9783;SDS011;4931;44.874;-1.092;2024-02-15T00:57:57;7.50;;;2.83;;
9783;SDS011;4931;44.874;-1.092;2024-02-15T01:00:22;6.68;;;2.55;;
9783;SDS011;4931;44.874;-1.092;2024-02-15T01:02:48;6.03;;;2.95;;
9783;SDS011;4931;44.874;-1.092;2024-02-15T01:05:14;4.53;;;2.55;;
9783;SDS011;4931;44.874;-1.092;2024-02-15T01:07:43;6.88;;;3.00;;
9783;SDS011;4931;44.874;-1.092;2024-02-15T01:10:09;5.82;;;2.83;;
9783;SDS011;4931;44.874;-1.092;2024-02-15T01:12:34;4.22;;;2.78;;
9783;SDS011;4931;44.874;-1.092;2024-02-15T01:15:00;5.93;;;2.80;;
9783;SDS011;4931;44.874;-1.092;2024-02-15T01:17:26;6.90;;;2.92;;
9783;SDS011;4931;44.874;-1.092;2024-02-15T01:19:51;5.30;;;2.63;;
9783;SDS011;4931;44.874;-1.092;2024-02-15T01:22:18;5.63;;;2.72;;
9783;SDS011;4931;44.874;-1.092;2024-02-15T01:24:45;7.40;;;2.95;;
9783;SDS011;4931;44.874;-1.092;2024-02-15T01:27:11;7.28;;;2.88;;
9783;SDS011;4931;44.874;-1.092;2024-02-15T01:29:36;6.55;;;2.72;;
9783;SDS011;4931;44.874;-1.092;2024-02-15T01:32:01;4.45;;;2.58;;
9783;SDS011;4931;44.874;-1.092;2024-02-15T01:34:27;6.18;;;2.33;;
9783;SDS011;4931;44.874;-1.092;2024-02-15T01:36:53;6.05;;;2.67;;
9783;SDS011;4931;44.874;-1.092;2024-02-15T01:39:18;7.10;;;2.50;;
9783;SDS011;4931;44.874;-1.092;2024-02-15T01:41:47;4.53;;;2.10;;
9783;SDS011;4931;44.874;-1.092;2024-02-15T01:44:16;7.47;;;2.65;;
9783;SDS011;4931;44.874;-1.092;2024-02-15T01:46:43;6.63;;;2.50;;
9783;SDS011;4931;44.874;-1.092;2024-02-15T01:49:12;5.10;;;2.22;;
9783;SDS011;4931;44.874;-1.092;2024-02-15T01:51:38;5.95;;;2.75;;
9783;SDS011;4931;44.874;-1.092;2024-02-15T01:54:08;5.80;;;2.10;;
9783;SDS011;4931;44.874;-1.092;2024-02-15T01:56:35;6.72;;;2.42;;
9783;SDS011;4931;44.874;-1.092;2024-02-15T01:59:01;5.90;;;2.35;;
9783;SDS011;4931;44.874;-1.092;2024-02-15T02:01:28;4.00;;;2.10;;
9783;SDS011;4931;44.874;-1.092;2024-02-15T02:03:58;6.25;;;2.53;;
9783;SDS011;4931;44.874;-1.092;2024-02-15T02:06:23;7.75;;;2.30;;
9783;SDS011;4931;44.874;-1.092;2024-02-15T02:08:50;6.20;;;2.33;;
9783;SDS011;4931;44.874;-1.092;2024-02-15T02:11:15;7.65;;;2.80;;
9783;SDS011;4931;44.874;-1.092;2024-02-15T02:13:41;6.13;;;2.13;;
9783;SDS011;4931;44.874;-1.092;2024-02-15T02:18:52;4.85;;;2.30;;
9783;SDS011;4931;44.874;-1.092;2024-02-15T02:21:19;7.20;;;2.00;;
9783;SDS011;4931;44.874;-1.092;2024-02-15T02:23:45;6.45;;;2.42;;
9783;SDS011;4931;44.874;-1.092;2024-02-15T02:26:18;6.60;;;2.22;;
9783;SDS011;4931;44.874;-1.092;2024-02-15T02:28:46;5.50;;;2.15;;
9783;SDS011;4931;44.874;-1.092;2024-02-15T02:31:12;5.55;;;2.25;;
9783;SDS011;4931;44.874;-1.092;2024-02-15T02:33:38;5.18;;;2.53;;
9783;SDS011;4931;44.874;-1.092;2024-02-15T02:36:03;5.60;;;2.50;;
9783;SDS011;4931;44.874;-1.092;2024-02-15T02:38:32;4.57;;;2.42;;
9783;SDS011;4931;44.874;-1.092;2024-02-15T02:40:57;3.50;;;2.20;;
9783;SDS011;4931;44.874;-1.092;2024-02-15T02:43:23;7.55;;;2.35;;
9783;SDS011;4931;44.874;-1.092;2024-02-15T02:45:49;4.70;;;2.60;;
9783;SDS011;4931;44.874;-1.092;2024-02-15T02:48:14;6.03;;;2.20;;
9783;SDS011;4931;44.874;-1.092;2024-02-15T02:50:40;6.15;;;2.25;;
9783;SDS011;4931;44.874;-1.092;2024-02-15T02:53:05;7.30;;;2.15;;
9783;SDS011;4931;44.874;-1.092;2024-02-15T02:55:30;5.80;;;2.42;;
9783;SDS011;4931;44.874;-1.092;2024-02-15T02:57:56;5.40;;;2.35;;
9783;SDS011;4931;44.874;-1.092;2024-02-15T03:00:21;7.63;;;2.40;;
9783;SDS011;4931;44.874;-1.092;2024-02-15T03:02:47;4.00;;;2.20;;
9783;SDS011;4931;44.874;-1.092;2024-02-15T03:05:13;5.93;;;2.20;;
9783;SDS011;4931;44.874;-1.092;2024-02-15T03:07:39;4.75;;;2.15;;
9783;SDS011;4931;44.874;-1.092;2024-02-15T03:10:06;7.03;;;2.53;;
9783;SDS011;4931;44.874;-1.092;2024-02-15T03:12:38;6.95;;;2.72;;
9783;SDS011;4931;44.874;-1.092;2024-02-15T03:15:04;4.13;;;2.30;;
9783;SDS011;4931;44.874;-1.092;2024-02-15T03:17:36;6.47;;;2.42;;
9783;SDS011;4931;44.874;-1.092;2024-02-15T03:20:05;5.85;;;2.10;;
9783;SDS011;4931;44.874;-1.092;2024-02-15T03:22:36;7.03;;;2.65;;
9783;SDS011;4931;44.874;-1.092;2024-02-15T03:25:03;3.38;;;2.30;;
9783;SDS011;4931;44.874;-1.092;2024-02-15T03:27:35;5.47;;;2.45;;
9783;SDS011;4931;44.874;-1.092;2024-02-15T03:30:05;8.55;;;2.35;;
9783;SDS011;4931;44.874;-1.092;2024-02-15T03:32:31;7.97;;;2.40;;
9783;SDS011;4931;44.874;-1.092;2024-02-15T03:34:56;6.00;;;2.17;;
9783;SDS011;4931;44.874;-1.092;2024-02-15T03:37:22;4.80;;;2.38;;
9783;SDS011;4931;44.874;-1.092;2024-02-15T03:39:47;6.45;;;2.30;;
9783;SDS011;4931;44.874;-1.092;2024-02-15T03:42:13;3.67;;;2.20;;
9783;SDS011;4931;44.874;-1.092;2024-02-15T03:44:38;5.32;;;2.47;;
9783;SDS011;4931;44.874;-1.092;2024-02-15T03:47:06;5.43;;;2.15;;
9783;SDS011;4931;44.874;-1.092;2024-02-15T03:49:32;5.00;;;2.30;;
9783;SDS011;4931;44.874;-1.092;2024-02-15T03:51:57;6.35;;;2.03;;
9783;SDS011;4931;44.874;-1.092;2024-02-15T03:54:26;6.95;;;2.40;;
9783;SDS011;4931;44.874;-1.092;2024-02-15T03:56:51;4.72;;;2.22;;
9783;SDS011;4931;44.874;-1.092;2024-02-15T03:59:20;7.00;;;2.55;;
9783;SDS011;4931;44.874;-1.092;2024-02-15T04:01:50;5.38;;;2.40;;
9783;SDS011;4931;44.874;-1.092;2024-02-15T04:04:16;5.03;;;2.22;;
9783;SDS011;4931;44.874;-1.092;2024-02-15T04:06:41;4.85;;;2.28;;
9783;SDS011;4931;44.874;-1.092;2024-02-15T04:09:08;7.00;;;2.25;;
9783;SDS011;4931;44.874;-1.092;2024-02-15T04:11:35;6.30;;;1.98;;
9783;SDS011;4931;44.874;-1.092;2024-02-15T04:14:03;5.78;;;2.40;;
9783;SDS011;4931;44.874;-1.092;2024-02-15T04:16:28;3.85;;;2.15;;
9783;SDS011;4931;44.874;-1.092;2024-02-15T04:18:55;5.20;;;2.10;;
9783;SDS011;4931;44.874;-1.092;2024-02-15T04:21:23;6.70;;;2.30;;
9783;SDS011;4931;44.874;-1.092;2024-02-15T04:23:48;5.35;;;2.20;;
9783;SDS011;4931;44.874;-1.092;2024-02-15T04:26:14;4.50;;;2.28;;
9783;SDS011;4931;44.874;-1.092;2024-02-15T04:28:40;4.03;;;2.20;;
9783;SDS011;4931;44.874;-1.092;2024-02-15T04:31:06;5.75;;;2.13;;
9783;SDS011;4931;44.874;-1.092;2024-02-15T04:33:34;6.25;;;2.05;;
9783;SDS011;4931;44.874;-1.092;2024-02-15T04:35:59;3.67;;;2.10;;
9783;SDS011;4931;44.874;-1.092;2024-02-15T04:38:31;4.90;;;2.20;;
9783;SDS011;4931;44.874;-1.092;2024-02-15T04:41:00;4.22;;;1.95;;
9783;SDS011;4931;44.874;-1.092;2024-02-15T04:43:26;5.22;;;2.30;;
9783;SDS011;4931;44.874;-1.092;2024-02-15T04:45:51;4.88;;;2.13;;
9783;SDS011;4931;44.874;-1.092;2024-02-15T04:48:17;6.53;;;2.42;;
9783;SDS011;4931;44.874;-1.092;2024-02-15T04:50:44;7.03;;;2.47;;
9783;SDS011;4931;44.874;-1.092;2024-02-15T04:53:10;3.80;;;2.20;;
9783;SDS011;4931;44.874;-1.092;2024-02-15T04:55:36;4.32;;;2.45;;
9783;SDS011;4931;44.874;-1.092;2024-02-15T04:58:02;6.50;;;2.45;;
9783;SDS011;4931;44.874;-1.092;2024-02-15T05:00:29;8.77;;;2.47;;
9783;SDS011;4931;44.874;-1.092;2024-02-15T05:02:55;7.22;;;2.25;;
9783;SDS011;4931;44.874;-1.092;2024-02-15T05:05:20;5.25;;;2.10;;
9783;SDS011;4931;44.874;-1.092;2024-02-15T05:07:47;4.72;;;2.40;;
9783;SDS011;4931;44.874;-1.092;2024-02-15T05:10:14;5.30;;;2.53;;
9783;SDS011;4931;44.874;-1.092;2024-02-15T05:12:41;4.18;;;2.30;;
9783;SDS011;4931;44.874;-1.092;2024-02-15T05:15:08;4.55;;;2.00;;
9783;SDS011;4931;44.874;-1.092;2024-02-15T05:17:40;4.93;;;2.25;;
9783;SDS011;4931;44.874;-1.092;2024-02-15T05:20:07;8.00;;;2.67;;
9783;SDS011;4931;44.874;-1.092;2024-02-15T05:22:36;7.15;;;2.38;;
9783;SDS011;4931;44.874;-1.092;2024-02-15T05:25:04;7.35;;;2.25;;
9783;SDS011;4931;44.874;-1.092;2024-02-15T05:27:31;6.28;;;1.85;;
9783;SDS011;4931;44.874;-1.092;2024-02-15T05:29:56;5.03;;;2.38;;
9783;SDS011;4931;44.874;-1.092;2024-02-15T05:32:22;5.32;;;2.22;;
9783;SDS011;4931;44.874;-1.092;2024-02-15T05:34:47;8.60;;;2.78;;
9783;SDS011;4931;44.874;-1.092;2024-02-15T05:37:16;5.70;;;2.50;;
9783;SDS011;4931;44.874;-1.092;2024-02-15T05:39:41;5.10;;;2.45;;
9783;SDS011;4931;44.874;-1.092;2024-02-15T05:42:06;5.45;;;2.72;;
9783;SDS011;4931;44.874;-1.092;2024-02-15T05:44:33;6.20;;;2.38;;
9783;SDS011;4931;44.874;-1.092;2024-02-15T05:47:00;6.72;;;3.00;;
9783;SDS011;4931;44.874;-1.092;2024-02-15T05:49:25;7.45;;;2.90;;
9783;SDS011;4931;44.874;-1.092;2024-02-15T05:51:51;9.20;;;3.20;;
9783;SDS011;4931;44.874;-1.092;2024-02-15T05:54:18;5.07;;;3.30;;
9783;SDS011;4931;44.874;-1.092;2024-02-15T05:56:44;6.88;;;3.50;;
9783;SDS011;4931;44.874;-1.092;2024-02-15T05:59:10;4.00;;;2.90;;
9783;SDS011;4931;44.874;-1.092;2024-02-15T06:01:41;6.78;;;3.00;;
9783;SDS011;4931;44.874;-1.092;2024-02-15T06:04:07;6.78;;;2.75;;
9783;SDS011;4931;44.874;-1.092;2024-02-15T06:06:37;6.03;;;2.65;;
9783;SDS011;4931;44.874;-1.092;2024-02-15T06:09:03;3.80;;;2.40;;
9783;SDS011;4931;44.874;-1.092;2024-02-15T06:11:29;5.05;;;2.67;;
9783;SDS011;4931;44.874;-1.092;2024-02-15T06:13:55;7.53;;;3.10;;
9783;SDS011;4931;44.874;-1.092;2024-02-15T06:16:21;5.70;;;3.45;;
9783;SDS011;4931;44.874;-1.092;2024-02-15T06:18:46;7.50;;;2.83;;
9783;SDS011;4931;44.874;-1.092;2024-02-15T06:21:13;5.28;;;3.08;;
9783;SDS011;4931;44.874;-1.092;2024-02-15T06:23:38;4.15;;;2.70;;
9783;SDS011;4931;44.874;-1.092;2024-02-15T06:26:04;5.43;;;2.90;;
9783;SDS011;4931;44.874;-1.092;2024-02-15T06:28:30;8.00;;;3.20;;
9783;SDS011;4931;44.874;-1.092;2024-02-15T06:31:14;5.85;;;3.00;;
9783;SDS011;4931;44.874;-1.092;2024-02-15T06:33:58;6.15;;;3.20;;
9783;SDS011;4931;44.874;-1.092;2024-02-15T06:39:33;5.90;;;2.63;;
9783;SDS011;4931;44.874;-1.092;2024-02-15T06:42:15;4.80;;;2.33;;
9783;SDS011;4931;44.874;-1.092;2024-02-15T06:44:43;7.68;;;3.00;;
9783;SDS011;4931;44.874;-1.092;2024-02-15T06:47:09;8.43;;;2.53;;
9783;SDS011;4931;44.874;-1.092;2024-02-15T06:49:36;6.60;;;2.60;;
9783;SDS011;4931;44.874;-1.092;2024-02-15T06:52:05;4.13;;;2.60;;
9783;SDS011;4931;44.874;-1.092;2024-02-15T06:54:32;6.55;;;2.83;;
9783;SDS011;4931;44.874;-1.092;2024-02-15T06:56:59;5.18;;;2.50;;
9783;SDS011;4931;44.874;-1.092;2024-02-15T06:59:24;9.23;;;2.30;;
9783;SDS011;4931;44.874;-1.092;2024-02-15T07:01:50;7.95;;;2.58;;
9783;SDS011;4931;44.874;-1.092;2024-02-15T07:04:17;9.93;;;2.95;;
9783;SDS011;4931;44.874;-1.092;2024-02-15T07:06:44;7.72;;;3.42;;
9783;SDS011;4931;44.874;-1.092;2024-02-15T07:09:13;6.97;;;3.03;;
9783;SDS011;4931;44.874;-1.092;2024-02-15T07:11:40;5.63;;;3.20;;
9783;SDS011;4931;44.874;-1.092;2024-02-15T07:14:05;5.32;;;2.83;;
9783;SDS011;4931;44.874;-1.092;2024-02-15T07:16:32;7.47;;;3.10;;
9783;SDS011;4931;44.874;-1.092;2024-02-15T07:18:58;6.50;;;3.33;;
9783;SDS011;4931;44.874;-1.092;2024-02-15T07:21:28;6.40;;;2.95;;
9783;SDS011;4931;44.874;-1.092;2024-02-15T07:23:54;4.85;;;2.70;;
9783;SDS011;4931;44.874;-1.092;2024-02-15T07:26:21;5.05;;;2.63;;
9783;SDS011;4931;44.874;-1.092;2024-02-15T07:28:49;5.25;;;2.78;;
9783;SDS011;4931;44.874;-1.092;2024-02-15T07:31:18;5.10;;;2.60;;
9783;SDS011;4931;44.874;-1.092;2024-02-15T07:33:46;6.53;;;2.42;;
9783;SDS011;4931;44.874;-1.092;2024-02-15T07:36:12;6.75;;;3.20;;
9783;SDS011;4931;44.874;-1.092;2024-02-15T07:38:38;6.75;;;3.08;;
9783;SDS011;4931;44.874;-1.092;2024-02-15T07:41:03;7.78;;;2.97;;
9783;SDS011;4931;44.874;-1.092;2024-02-15T07:43:29;7.85;;;3.00;;
9783;SDS011;4931;44.874;-1.092;2024-02-15T07:45:54;9.10;;;3.00;;
9783;SDS011;4931;44.874;-1.092;2024-02-15T07:48:19;4.88;;;2.78;;
9783;SDS011;4931;44.874;-1.092;2024-02-15T07:50:45;8.48;;;3.50;;
9783;SDS011;4931;44.874;-1.092;2024-02-15T07:53:10;7.05;;;3.50;;
9783;SDS011;4931;44.874;-1.092;2024-02-15T07:55:37;5.22;;;3.15;;
9783;SDS011;4931;44.874;-1.092;2024-02-15T07:58:03;6.72;;;3.22;;
9783;SDS011;4931;44.874;-1.092;2024-02-15T08:00:30;6.97;;;3.10;;
9783;SDS011;4931;44.874;-1.092;2024-02-15T08:02:55;6.43;;;3.05;;
9783;SDS011;4931;44.874;-1.092;2024-02-15T08:05:22;8.30;;;3.45;;
9783;SDS011;4931;44.874;-1.092;2024-02-15T08:07:48;12.75;;;3.78;;
9783;SDS011;4931;44.874;-1.092;2024-02-15T08:10:13;6.32;;;3.40;;
9783;SDS011;4931;44.874;-1.092;2024-02-15T08:12:48;7.43;;;3.30;;
9783;SDS011;4931;44.874;-1.092;2024-02-15T08:15:18;8.80;;;3.47;;
9783;SDS011;4931;44.874;-1.092;2024-02-15T08:17:44;9.82;;;3.75;;
9783;SDS011;4931;44.874;-1.092;2024-02-15T08:20:13;7.30;;;3.70;;
9783;SDS011;4931;44.874;-1.092;2024-02-15T08:22:40;8.25;;;3.53;;
9783;SDS011;4931;44.874;-1.092;2024-02-15T08:25:12;6.80;;;5.03;;
9783;SDS011;4931;44.874;-1.092;2024-02-15T08:27:40;7.03;;;3.80;;
9783;SDS011;4931;44.874;-1.092;2024-02-15T08:30:12;9.38;;;3.70;;
9783;SDS011;4931;44.874;-1.092;2024-02-15T08:32:39;9.45;;;3.92;;
9783;SDS011;4931;44.874;-1.092;2024-02-15T08:35:06;8.88;;;3.92;;
9783;SDS011;4931;44.874;-1.092;2024-02-15T08:37:33;6.20;;;3.92;;
9783;SDS011;4931;44.874;-1.092;2024-02-15T08:40:03;5.57;;;3.92;;
9783;SDS011;4931;44.874;-1.092;2024-02-15T08:42:35;7.72;;;4.30;;
9783;SDS011;4931;44.874;-1.092;2024-02-15T08:45:04;9.15;;;4.03;;
9783;SDS011;4931;44.874;-1.092;2024-02-15T08:47:30;8.00;;;4.60;;
9783;SDS011;4931;44.874;-1.092;2024-02-15T08:49:55;10.25;;;4.60;;
9783;SDS011;4931;44.874;-1.092;2024-02-15T08:52:21;8.27;;;4.32;;
9783;SDS011;4931;44.874;-1.092;2024-02-15T08:54:46;8.70;;;4.32;;
9783;SDS011;4931;44.874;-1.092;2024-02-15T08:57:12;9.02;;;4.30;;
9783;SDS011;4931;44.874;-1.092;2024-02-15T08:59:39;8.95;;;4.90;;
9783;SDS011;4931;44.874;-1.092;2024-02-15T09:02:04;8.23;;;4.05;;
9783;SDS011;4931;44.874;-1.092;2024-02-15T09:04:30;8.35;;;4.35;;
9783;SDS011;4931;44.874;-1.092;2024-02-15T09:06:56;7.72;;;3.90;;
9783;SDS011;4931;44.874;-1.092;2024-02-15T09:09:21;8.05;;;3.67;;
9783;SDS011;4931;44.874;-1.092;2024-02-15T09:11:47;7.07;;;3.65;;
9783;SDS011;4931;44.874;-1.092;2024-02-15T09:14:12;9.43;;;4.20;;
9783;SDS011;4931;44.874;-1.092;2024-02-15T09:16:38;7.78;;;3.78;;
9783;SDS011;4931;44.874;-1.092;2024-02-15T09:19:04;6.93;;;4.00;;
9783;SDS011;4931;44.874;-1.092;2024-02-15T09:21:31;9.27;;;3.78;;
9783;SDS011;4931;44.874;-1.092;2024-02-15T09:23:58;6.90;;;3.92;;
9783;SDS011;4931;44.874;-1.092;2024-02-15T09:26:24;6.47;;;4.00;;
9783;SDS011;4931;44.874;-1.092;2024-02-15T09:28:50;7.72;;;3.95;;
9783;SDS011;4931;44.874;-1.092;2024-02-15T09:31:16;8.25;;;4.32;;
9783;SDS011;4931;44.874;-1.092;2024-02-15T09:33:41;7.53;;;4.25;;
9783;SDS011;4931;44.874;-1.092;2024-02-15T09:36:07;8.15;;;5.05;;
9783;SDS011;4931;44.874;-1.092;2024-02-15T09:38:33;6.63;;;4.47;;
9783;SDS011;4931;44.874;-1.092;2024-02-15T09:40:58;11.65;;;6.47;;
9783;SDS011;4931;44.874;-1.092;2024-02-15T09:43:24;9.82;;;4.63;;
9783;SDS011;4931;44.874;-1.092;2024-02-15T09:45:51;8.45;;;5.72;;
9783;SDS011;4931;44.874;-1.092;2024-02-15T09:48:18;9.02;;;5.93;;
9783;SDS011;4931;44.874;-1.092;2024-02-15T09:50:44;8.07;;;5.10;;
9783;SDS011;4931;44.874;-1.092;2024-02-15T09:53:13;9.88;;;4.90;;
9783;SDS011;4931;44.874;-1.092;2024-02-15T09:55:40;11.48;;;5.05;;
9783;SDS011;4931;44.874;-1.092;2024-02-15T09:58:07;14.07;;;5.00;;
9783;SDS011;4931;44.874;-1.092;2024-02-15T10:00:34;8.93;;;4.47;;
9783;SDS011;4931;44.874;-1.092;2024-02-15T10:03:00;10.43;;;4.65;;
9783;SDS011;4931;44.874;-1.092;2024-02-15T10:05:27;9.20;;;4.78;;
9783;SDS011;4931;44.874;-1.092;2024-02-15T10:07:53;9.23;;;4.90;;
9783;SDS011;4931;44.874;-1.092;2024-02-15T10:10:22;7.93;;;4.90;;
9783;SDS011;4931;44.874;-1.092;2024-02-15T10:12:50;8.82;;;5.05;;
9783;SDS011;4931;44.874;-1.092;2024-02-15T10:18:02;8.90;;;4.45;;
9783;SDS011;4931;44.874;-1.092;2024-02-15T10:20:38;9.90;;;4.68;;
9783;SDS011;4931;44.874;-1.092;2024-02-15T10:23:12;9.98;;;5.00;;
9783;SDS011;4931;44.874;-1.092;2024-02-15T10:25:40;10.15;;;5.43;;
9783;SDS011;4931;44.874;-1.092;2024-02-15T10:28:06;9.63;;;5.40;;
9783;SDS011;4931;44.874;-1.092;2024-02-15T10:30:35;7.38;;;4.65;;
9783;SDS011;4931;44.874;-1.092;2024-02-15T10:33:02;7.97;;;4.75;;
9783;SDS011;4931;44.874;-1.092;2024-02-15T10:35:28;9.93;;;5.13;;
9783;SDS011;4931;44.874;-1.092;2024-02-15T10:38:05;8.10;;;5.05;;
9783;SDS011;4931;44.874;-1.092;2024-02-15T10:40:36;8.85;;;4.82;;
9783;SDS011;4931;44.874;-1.092;2024-02-15T10:43:03;8.38;;;5.13;;
9783;SDS011;4931;44.874;-1.092;2024-02-15T10:45:30;7.85;;;4.88;;
9783;SDS011;4931;44.874;-1.092;2024-02-15T10:47:56;8.38;;;4.95;;
9783;SDS011;4931;44.874;-1.092;2024-02-15T10:50:25;6.90;;;4.95;;
9783;SDS011;4931;44.874;-1.092;2024-02-15T10:52:54;8.88;;;4.90;;
9783;SDS011;4931;44.874;-1.092;2024-02-15T10:55:22;7.13;;;4.80;;
9783;SDS011;4931;44.874;-1.092;2024-02-15T10:58:00;10.27;;;4.50;;
9783;SDS011;4931;44.874;-1.092;2024-02-15T11:00:30;9.20;;;4.68;;
9783;SDS011;4931;44.874;-1.092;2024-02-15T11:05:33;7.78;;;4.40;;
9783;SDS011;4931;44.874;-1.092;2024-02-15T11:08:07;9.73;;;5.03;;
9783;SDS011;4931;44.874;-1.092;2024-02-15T11:10:36;6.93;;;4.20;;
9783;SDS011;4931;44.874;-1.092;2024-02-15T11:13:03;8.02;;;4.55;;
9783;SDS011;4931;44.874;-1.092;2024-02-15T11:15:47;7.20;;;3.95;;
9783;SDS011;4931;44.874;-1.092;2024-02-15T11:21:10;6.75;;;3.95;;
9783;SDS011;4931;44.874;-1.092;2024-02-15T11:23:35;9.60;;;4.13;;
9783;SDS011;4931;44.874;-1.092;2024-02-15T11:26:01;7.45;;;4.13;;
9783;SDS011;4931;44.874;-1.092;2024-02-15T11:30:55;4.82;;;3.25;;
9783;SDS011;4931;44.874;-1.092;2024-02-15T11:33:27;7.10;;;3.67;;
9783;SDS011;4931;44.874;-1.092;2024-02-15T11:38:30;6.38;;;3.78;;
9783;SDS011;4931;44.874;-1.092;2024-02-15T11:46:26;4.65;;;3.50;;
9783;SDS011;4931;44.874;-1.092;2024-02-15T11:48:55;4.93;;;3.55;;
9783;SDS011;4931;44.874;-1.092;2024-02-15T11:51:34;4.75;;;2.80;;
9783;SDS011;4931;44.874;-1.092;2024-02-15T11:54:10;6.93;;;3.40;;
9783;SDS011;4931;44.874;-1.092;2024-02-15T11:59:13;7.53;;;3.08;;
9783;SDS011;4931;44.874;-1.092;2024-02-15T12:04:41;6.40;;;3.33;;
9783;SDS011;4931;44.874;-1.092;2024-02-15T12:07:26;5.45;;;3.25;;
9783;SDS011;4931;44.874;-1.092;2024-02-15T12:10:19;7.82;;;3.00;;
9783;SDS011;4931;44.874;-1.092;2024-02-15T12:13:03;5.93;;;2.90;;
9783;SDS011;4931;44.874;-1.092;2024-02-15T12:16:00;6.72;;;3.35;;
9783;SDS011;4931;44.874;-1.092;2024-02-15T12:18:44;5.85;;;3.13;;
9783;SDS011;4931;44.874;-1.092;2024-02-15T12:21:14;5.50;;;3.25;;
9783;SDS011;4931;44.874;-1.092;2024-02-15T12:23:46;7.85;;;3.40;;
9783;SDS011;4931;44.874;-1.092;2024-02-15T12:26:12;5.18;;;2.97;;
9783;SDS011;4931;44.874;-1.092;2024-02-15T12:28:40;5.65;;;3.00;;
9783;SDS011;4931;44.874;-1.092;2024-02-15T12:31:08;4.80;;;2.90;;
9783;SDS011;4931;44.874;-1.092;2024-02-15T12:33:35;6.65;;;2.53;;
9783;SDS011;4931;44.874;-1.092;2024-02-15T12:36:07;5.03;;;2.85;;
9783;SDS011;4931;44.874;-1.092;2024-02-15T12:38:33;4.22;;;2.60;;
9783;SDS011;4931;44.874;-1.092;2024-02-15T12:41:02;5.60;;;2.80;;
9783;SDS011;4931;44.874;-1.092;2024-02-15T12:43:28;6.05;;;3.17;;
9783;SDS011;4931;44.874;-1.092;2024-02-15T12:45:55;4.82;;;2.50;;
9783;SDS011;4931;44.874;-1.092;2024-02-15T12:48:22;4.55;;;2.25;;
9783;SDS011;4931;44.874;-1.092;2024-02-15T12:50:47;3.78;;;2.30;;
9783;SDS011;4931;44.874;-1.092;2024-02-15T12:53:20;3.88;;;2.47;;
9783;SDS011;4931;44.874;-1.092;2024-02-15T12:55:51;3.55;;;2.30;;
9783;SDS011;4931;44.874;-1.092;2024-02-15T12:58:19;3.38;;;2.15;;
9783;SDS011;4931;44.874;-1.092;2024-02-15T13:00:45;3.65;;;2.40;;
9783;SDS011;4931;44.874;-1.092;2024-02-15T13:03:11;4.55;;;2.30;;
9783;SDS011;4931;44.874;-1.092;2024-02-15T13:05:39;4.20;;;2.85;;
9783;SDS011;4931;44.874;-1.092;2024-02-15T13:08:05;3.65;;;2.20;;
9783;SDS011;4931;44.874;-1.092;2024-02-15T13:10:35;3.85;;;2.40;;
9783;SDS011;4931;44.874;-1.092;2024-02-15T13:13:01;3.33;;;2.05;;
9783;SDS011;4931;44.874;-1.092;2024-02-15T13:15:26;4.65;;;2.40;;
9783;SDS011;4931;44.874;-1.092;2024-02-15T13:17:53;5.38;;;2.25;;
9783;SDS011;4931;44.874;-1.092;2024-02-15T13:20:28;3.90;;;2.28;;
9783;SDS011;4931;44.874;-1.092;2024-02-15T13:23:06;5.10;;;2.35;;
9783;SDS011;4931;44.874;-1.092;2024-02-15T13:25:47;3.78;;;2.03;;
9783;SDS011;4931;44.874;-1.092;2024-02-15T13:28:14;4.13;;;2.00;;
9783;SDS011;4931;44.874;-1.092;2024-02-15T13:30:39;3.35;;;2.20;;
9783;SDS011;4931;44.874;-1.092;2024-02-15T13:33:06;3.58;;;2.28;;
9783;SDS011;4931;44.874;-1.092;2024-02-15T13:35:31;4.72;;;2.40;;
9783;SDS011;4931;44.874;-1.092;2024-02-15T13:37:57;3.17;;;2.03;;
9783;SDS011;4931;44.874;-1.092;2024-02-15T13:40:23;4.30;;;2.25;;
9783;SDS011;4931;44.874;-1.092;2024-02-15T13:42:56;2.60;;;2.10;;
9783;SDS011;4931;44.874;-1.092;2024-02-15T13:47:56;4.15;;;2.38;;
9783;SDS011;4931;44.874;-1.092;2024-02-15T13:50:22;3.03;;;2.20;;
9783;SDS011;4931;44.874;-1.092;2024-02-15T13:52:48;3.40;;;2.10;;
9783;SDS011;4931;44.874;-1.092;2024-02-15T13:55:15;3.20;;;2.08;;
9783;SDS011;4931;44.874;-1.092;2024-02-15T13:57:42;2.78;;;2.08;;
9783;SDS011;4931;44.874;-1.092;2024-02-15T14:00:09;2.72;;;2.03;;
9783;SDS011;4931;44.874;-1.092;2024-02-15T14:02:42;3.08;;;1.88;;
9783;SDS011;4931;44.874;-1.092;2024-02-15T14:05:08;3.13;;;2.25;;
9783;SDS011;4931;44.874;-1.092;2024-02-15T14:07:38;4.53;;;2.13;;
9783;SDS011;4931;44.874;-1.092;2024-02-15T14:10:05;6.85;;;2.17;;
9783;SDS011;4931;44.874;-1.092;2024-02-15T14:12:32;3.63;;;2.30;;
9783;SDS011;4931;44.874;-1.092;2024-02-15T14:14:58;4.28;;;2.10;;
9783;SDS011;4931;44.874;-1.092;2024-02-15T14:17:23;3.13;;;2.08;;
9783;SDS011;4931;44.874;-1.092;2024-02-15T14:19:49;4.20;;;2.38;;
9783;SDS011;4931;44.874;-1.092;2024-02-15T14:22:14;3.47;;;2.47;;
9783;SDS011;4931;44.874;-1.092;2024-02-15T14:24:43;3.30;;;2.00;;
9783;SDS011;4931;44.874;-1.092;2024-02-15T14:27:09;3.55;;;2.40;;
9783;SDS011;4931;44.874;-1.092;2024-02-15T14:29:35;3.03;;;2.10;;
9783;SDS011;4931;44.874;-1.092;2024-02-15T14:32:03;3.53;;;2.20;;
9783;SDS011;4931;44.874;-1.092;2024-02-15T14:34:48;3.92;;;2.30;;
9783;SDS011;4931;44.874;-1.092;2024-02-15T14:37:15;6.05;;;3.03;;
9783;SDS011;4931;44.874;-1.092;2024-02-15T14:39:42;4.47;;;3.10;;
9783;SDS011;4931;44.874;-1.092;2024-02-15T14:42:08;5.03;;;2.78;;
9783;SDS011;4931;44.874;-1.092;2024-02-15T14:44:36;2.88;;;2.40;;
9783;SDS011;4931;44.874;-1.092;2024-02-15T14:47:02;3.97;;;2.83;;
9783;SDS011;4931;44.874;-1.092;2024-02-15T14:49:27;3.60;;;2.65;;
9783;SDS011;4931;44.874;-1.092;2024-02-15T14:51:52;3.88;;;2.22;;
9783;SDS011;4931;44.874;-1.092;2024-02-15T14:54:18;4.05;;;1.92;;
9783;SDS011;4931;44.874;-1.092;2024-02-15T14:56:44;4.40;;;2.42;;
9783;SDS011;4931;44.874;-1.092;2024-02-15T14:59:10;3.28;;;2.22;;
9783;SDS011;4931;44.874;-1.092;2024-02-15T15:01:36;5.28;;;2.50;;
9783;SDS011;4931;44.874;-1.092;2024-02-15T15:04:02;3.90;;;2.10;;
9783;SDS011;4931;44.874;-1.092;2024-02-15T15:06:31;4.38;;;2.42;;
9783;SDS011;4931;44.874;-1.092;2024-02-15T15:09:15;4.45;;;2.58;;
9783;SDS011;4931;44.874;-1.092;2024-02-15T15:11:59;6.43;;;2.50;;
9783;SDS011;4931;44.874;-1.092;2024-02-15T15:14:53;3.55;;;2.05;;
9783;SDS011;4931;44.874;-1.092;2024-02-15T15:17:20;3.55;;;2.20;;
9783;SDS011;4931;44.874;-1.092;2024-02-15T15:19:46;4.88;;;2.40;;
9783;SDS011;4931;44.874;-1.092;2024-02-15T15:22:11;2.80;;;2.22;;
9783;SDS011;4931;44.874;-1.092;2024-02-15T15:24:36;5.13;;;2.60;;
9783;SDS011;4931;44.874;-1.092;2024-02-15T15:27:02;4.50;;;2.85;;
9783;SDS011;4931;44.874;-1.092;2024-02-15T15:29:30;3.83;;;2.40;;
9783;SDS011;4931;44.874;-1.092;2024-02-15T15:31:55;5.90;;;2.85;;
9783;SDS011;4931;44.874;-1.092;2024-02-15T15:34:22;4.05;;;2.75;;
9783;SDS011;4931;44.874;-1.092;2024-02-15T15:36:48;4.50;;;2.40;;